Time;durP1;ratioP1;P1;durP2;ratioP2;P2;SDS_P1;SDS_P2;PMS_P1;PMS_P2;Temp;Humidity;BMP_temperature;BMP_pressure;BME280_temperature;BME280_humidity;BME280_pressure;Samples;Min_cycle;Max_cycle;Signal;HPM_P1;HPM_P2
2022/02/21 00:00:52;;;;;;;0.25;0.25;;;9.60;95.80;;;;;;5001833;28;20030;-67
2022/02/21 00:03:20;;;;;;;0.98;0.32;;;9.70;95.70;;;;;;4995010;28;20032;-65
2022/02/21 00:05:47;;;;;;;0.95;0.40;;;9.70;95.40;;;;;;4994090;28;20026;-66
2022/02/21 00:08:13;;;;;;;0.68;0.43;;;9.70;95.20;;;;;;4995804;28;20037;-65
2022/02/21 00:10:39;;;;;;;0.85;0.30;;;9.80;94.90;;;;;;4997276;28;20045;-68
2022/02/21 00:13:04;;;;;;;0.95;0.40;;;9.80;94.80;;;;;;4995747;28;20038;-68
2022/02/21 00:15:30;;;;;;;0.57;0.32;;;9.90;94.70;;;;;;4993451;28;20494;-68
2022/02/21 00:17:56;;;;;;;0.45;0.20;;;9.80;94.30;;;;;;4992170;28;20145;-65
2022/02/21 00:20:23;;;;;;;0.47;0.10;;;9.90;94.20;;;;;;4999074;28;20038;-68
2022/02/21 00:22:49;;;;;;;0.40;0.20;;;9.90;93.90;;;;;;4995844;28;20042;-66
2022/02/21 00:25:15;;;;;;;1.15;0.40;;;10.00;94.00;;;;;;4995899;28;20029;-66
2022/02/21 00:27:41;;;;;;;2.05;0.70;;;10.10;93.80;;;;;;4990418;28;20498;-66
2022/02/21 00:30:07;;;;;;;1.70;0.45;;;10.10;93.50;;;;;;4998346;28;20041;-67
2022/02/21 00:32:34;;;;;;;0.30;0.30;;;10.20;92.90;;;;;;5001107;28;20087;-65
2022/02/21 00:35:00;;;;;;;2.17;1.08;;;10.20;93.30;;;;;;4995554;28;20038;-65
2022/02/21 00:37:26;;;;;;;0.80;0.38;;;10.20;92.80;;;;;;4993507;28;20038;-65
2022/02/21 00:39:52;;;;;;;1.40;0.60;;;10.30;92.80;;;;;;4991142;28;20897;-68
2022/02/21 00:42:21;;;;;;;0.40;0.30;;;10.30;92.60;;;;;;4998376;28;20101;-65
2022/02/21 00:44:51;;;;;;;1.40;0.60;;;10.40;92.40;;;;;;5000190;28;20105;-66
2022/02/21 00:47:17;;;;;;;1.52;0.40;;;10.40;92.20;;;;;;4999440;28;20034;-65
2022/02/21 00:49:43;;;;;;;1.20;0.40;;;10.40;92.30;;;;;;4993626;28;20049;-66
2022/02/21 00:52:08;;;;;;;2.15;0.55;;;10.40;92.20;;;;;;5000028;28;20034;-66
2022/02/21 00:54:34;;;;;;;1.00;0.43;;;10.40;92.20;;;;;;5001864;28;20038;-67
2022/02/21 00:57:00;;;;;;;1.63;0.40;;;10.40;92.00;;;;;;4998917;28;20046;-67
2022/02/21 00:59:26;;;;;;;2.28;0.45;;;10.50;91.60;;;;;;4996819;28;20045;-65
2022/02/21 01:01:52;;;;;;;1.45;0.40;;;10.50;91.70;;;;;;4994453;28;20033;-66
2022/02/21 01:04:18;;;;;;;2.85;0.60;;;10.50;91.40;;;;;;5000639;28;20022;-65
2022/02/21 01:06:44;;;;;;;0.75;0.40;;;10.50;91.60;;;;;;4998546;28;20406;-67
2022/02/21 01:09:09;;;;;;;1.48;0.35;;;10.60;91.10;;;;;;4999971;28;20140;-65
2022/02/21 01:11:35;;;;;;;0.55;0.40;;;10.60;91.10;;;;;;4993882;28;20100;-67
2022/02/21 01:14:01;;;;;;;2.92;0.50;;;10.60;91.20;;;;;;5001864;28;20140;-66
2022/02/21 01:16:27;;;;;;;2.15;1.15;;;10.60;90.90;;;;;;5001103;28;20036;-66
2022/02/21 01:18:53;;;;;;;4.30;0.50;;;10.60;91.00;;;;;;4996536;28;20060;-65
2022/02/21 01:21:19;;;;;;;3.38;0.50;;;10.60;90.90;;;;;;4997406;28;20117;-65
2022/02/21 01:23:45;;;;;;;0.90;0.40;;;10.60;91.00;;;;;;4999572;28;20034;-67
2022/02/21 01:26:11;;;;;;;1.35;0.47;;;10.60;90.40;;;;;;5002712;28;20033;-65
2022/02/21 01:28:37;;;;;;;2.45;0.40;;;10.60;90.70;;;;;;5002271;28;20038;-65
2022/02/21 01:31:03;;;;;;;4.30;0.75;;;10.60;90.40;;;;;;5000203;28;20119;-66
2022/02/21 01:33:29;;;;;;;2.47;0.40;;;10.70;90.10;;;;;;4994502;28;20033;-67
2022/02/21 01:35:57;;;;;;;3.50;0.65;;;10.80;90.00;;;;;;5003501;28;20034;-65
2022/02/21 01:38:24;;;;;;;1.95;0.40;;;10.80;90.10;;;;;;5003606;28;20042;-65
2022/02/21 01:40:50;;;;;;;0.95;0.20;;;10.80;89.00;;;;;;4997562;28;20093;-65
2022/02/21 01:43:17;;;;;;;1.00;0.40;;;10.80;88.50;;;;;;5001025;28;20034;-67
2022/02/21 01:45:43;;;;;;;2.90;0.80;;;10.80;89.00;;;;;;4997048;28;20063;-65
2022/02/21 01:48:09;;;;;;;0.43;0.32;;;10.80;88.50;;;;;;5004834;28;20038;-67
2022/02/21 01:50:36;;;;;;;1.20;0.30;;;10.80;88.20;;;;;;5000948;28;20042;-66
2022/02/21 01:53:03;;;;;;;2.00;0.82;;;10.80;88.00;;;;;;5000757;28;20091;-71
2022/02/21 01:55:29;;;;;;;2.50;0.30;;;10.90;87.50;;;;;;4997478;28;20025;-68
2022/02/21 01:57:54;;;;;;;0.43;0.28;;;11.00;87.00;;;;;;5001297;28;20042;-68
2022/02/21 02:00:20;;;;;;;1.23;0.32;;;11.00;87.30;;;;;;5002145;28;20111;-68
2022/02/21 02:02:46;;;;;;;1.40;0.43;;;11.10;87.20;;;;;;4994973;28;20113;-67
2022/02/21 02:05:13;;;;;;;0.50;0.30;;;11.10;86.20;;;;;;4996952;28;20398;-67
2022/02/21 02:07:40;;;;;;;1.05;0.32;;;11.10;86.40;;;;;;4995992;28;20045;-69
2022/02/21 02:10:07;;;;;;;0.57;0.28;;;11.10;86.60;;;;;;5002426;28;20029;-68
2022/02/21 02:12:33;;;;;;;0.30;0.30;;;11.20;86.20;;;;;;5001526;28;20029;-68
2022/02/21 02:14:59;;;;;;;0.82;0.32;;;11.10;87.00;;;;;;4994823;28;20466;-68
2022/02/21 02:17:25;;;;;;;0.80;0.35;;;11.10;87.90;;;;;;4998115;28;20136;-68
2022/02/21 02:19:51;;;;;;;0.35;0.28;;;11.10;88.80;;;;;;5002530;28;20401;-68
2022/02/21 02:22:19;;;;;;;2.38;0.50;;;11.00;90.40;;;;;;5003976;28;20026;-68
2022/02/21 02:24:47;;;;;;;1.77;0.32;;;10.80;91.20;;;;;;4995557;28;20031;-68
2022/02/21 02:27:13;;;;;;;8.70;0.82;;;10.70;91.80;;;;;;4997115;28;20548;-68
2022/02/21 02:29:41;;;;;;;1.55;0.45;;;10.60;93.40;;;;;;4999444;28;20135;-69
2022/02/21 02:32:08;;;;;;;1.15;0.30;;;10.10;91.80;;;;;;4995857;28;20041;-69
2022/02/21 02:34:35;;;;;;;1.15;0.43;;;9.50;92.60;;;;;;4997328;28;20411;-69
2022/02/21 02:37:00;;;;;;;0.38;0.17;;;9.20;93.20;;;;;;4995922;28;20038;-69
2022/02/21 02:39:27;;;;;;;1.08;0.22;;;9.00;93.50;;;;;;4995056;28;20030;-69
2022/02/21 02:41:53;;;;;;;1.00;0.22;;;8.80;93.60;;;;;;5000949;28;20033;-69
2022/02/21 02:44:19;;;;;;;2.45;0.30;;;8.70;93.60;;;;;;5001643;28;20030;-69
2022/02/21 02:46:46;;;;;;;0.95;0.25;;;8.50;93.70;;;;;;4992935;28;20038;-69
2022/02/21 02:49:11;;;;;;;0.25;0.20;;;8.40;93.70;;;;;;4997016;28;20038;-69
2022/02/21 02:51:37;;;;;;;1.00;0.10;;;8.30;94.00;;;;;;5002440;28;20063;-69
2022/02/21 02:54:08;;;;;;;0.47;0.13;;;8.20;94.20;;;;;;4998499;28;20485;-69
2022/02/21 02:56:39;;;;;;;0.47;0.10;;;8.00;94.00;;;;;;4997862;28;20049;-69
2022/02/21 02:59:05;;;;;;;0.00;0.00;;;8.00;94.10;;;;;;4994942;28;20025;-67
2022/02/21 03:01:30;;;;;;;0.57;0.10;;;7.90;94.20;;;;;;4992853;28;20140;-68
2022/02/21 03:03:56;;;;;;;0.73;0.20;;;7.80;93.40;;;;;;4997624;28;20148;-68
2022/02/21 03:06:22;;;;;;;0.00;0.00;;;7.80;93.90;;;;;;4996224;28;20065;-68
2022/02/21 03:08:48;;;;;;;2.05;0.20;;;7.90;93.80;;;;;;4994155;28;20046;-68
2022/02/21 03:11:14;;;;;;;1.70;0.20;;;7.80;93.70;;;;;;4992895;28;20037;-68
2022/02/21 03:13:41;;;;;;;0.20;0.10;;;7.80;93.60;;;;;;4996159;28;20145;-68
2022/02/21 03:16:07;;;;;;;0.20;0.10;;;7.80;93.30;;;;;;4995867;28;20045;-68
2022/02/21 03:18:32;;;;;;;1.55;0.47;;;7.80;93.40;;;;;;4994415;28;20747;-68
2022/02/21 03:20:58;;;;;;;2.83;0.20;;;7.90;93.40;;;;;;4993469;28;20117;-68
2022/02/21 03:23:24;;;;;;;1.00;0.10;;;7.80;93.30;;;;;;4993709;28;20448;-68
2022/02/21 03:25:50;;;;;;;0.30;0.17;;;7.80;93.20;;;;;;4997972;28;20034;-69
2022/02/21 03:28:17;;;;;;;0.00;0.00;;;7.90;93.20;;;;;;5000357;28;20077;-68
2022/02/21 03:30:43;;;;;;;0.63;0.10;;;7.90;93.10;;;;;;4992471;28;20156;-69
2022/02/21 03:33:11;;;;;;;0.10;0.10;;;7.90;93.10;;;;;;4993169;28;20045;-68
2022/02/21 03:35:36;;;;;;;0.10;0.10;;;7.90;93.10;;;;;;4996174;28;20108;-68
2022/02/21 03:38:03;;;;;;;0.20;0.10;;;7.90;93.10;;;;;;4996648;28;20044;-68
2022/02/21 03:40:29;;;;;;;0.80;0.20;;;7.90;93.30;;;;;;4994632;28;20038;-68
2022/02/21 03:42:55;;;;;;;0.57;0.10;;;7.90;93.20;;;;;;4997254;28;20607;-68
2022/02/21 03:45:22;;;;;;;0.20;0.20;;;8.00;93.10;;;;;;4996619;28;20045;-68
2022/02/21 03:47:52;;;;;;;0.30;0.15;;;8.00;92.90;;;;;;4994698;28;20104;-69
2022/02/21 03:50:19;;;;;;;1.00;0.30;;;8.00;92.80;;;;;;4997539;28;20025;-69
2022/02/21 03:52:45;;;;;;;0.13;0.10;;;8.10;92.70;;;;;;4992640;28;20062;-69
2022/02/21 03:55:11;;;;;;;1.98;0.28;;;8.00;92.10;;;;;;4993182;28;20550;-69
2022/02/21 03:57:37;;;;;;;0.80;0.20;;;8.00;92.50;;;;;;5000168;28;20041;-69
2022/02/21 04:00:05;;;;;;;0.52;0.20;;;8.10;92.60;;;;;;4996756;28;20033;-68
2022/02/21 04:02:37;;;;;;;0.43;0.13;;;8.10;92.50;;;;;;4996378;28;20037;-69
2022/02/21 04:05:05;;;;;;;0.93;0.20;;;8.20;91.90;;;;;;4993894;28;20030;-70
2022/02/21 04:07:31;;;;;;;1.10;0.20;;;8.10;91.60;;;;;;4996746;28;20581;-70
2022/02/21 04:09:57;;;;;;;0.25;0.10;;;8.20;91.50;;;;;;4996713;28;20057;-69
2022/02/21 04:12:23;;;;;;;0.20;0.20;;;8.30;91.50;;;;;;4996902;28;20042;-70
2022/02/21 04:14:49;;;;;;;0.85;0.20;;;8.20;90.90;;;;;;4996312;28;20132;-70
2022/02/21 04:17:14;;;;;;;0.10;0.10;;;8.20;91.30;;;;;;4992034;28;20121;-69
2022/02/21 04:19:40;;;;;;;0.10;0.10;;;8.30;91.30;;;;;;5000040;28;20060;-69
2022/02/21 04:22:10;;;;;;;1.95;0.30;;;8.30;91.20;;;;;;4995704;28;20065;-69
2022/02/21 04:24:37;;;;;;;0.40;0.10;;;8.40;91.00;;;;;;4992156;28;20144;-70
2022/02/21 04:27:03;;;;;;;0.30;0.13;;;8.50;90.70;;;;;;4991854;28;20037;-69
2022/02/21 04:29:29;;;;;;;1.75;0.30;;;8.50;90.00;;;;;;4996167;28;20034;-69
2022/02/21 04:31:54;;;;;;;0.98;0.20;;;8.50;90.30;;;;;;4995730;28;20070;-70
2022/02/21 04:34:20;;;;;;;1.55;0.10;;;8.50;90.00;;;;;;4996098;28;20034;-70
2022/02/21 04:36:46;;;;;;;0.75;0.20;;;8.50;89.50;;;;;;4991132;28;20092;-69
2022/02/21 04:39:11;;;;;;;0.20;0.10;;;8.50;88.30;;;;;;4992080;28;20488;-69
2022/02/21 04:41:37;;;;;;;0.80;0.28;;;8.50;88.70;;;;;;4998663;28;20034;-70
2022/02/21 04:44:03;;;;;;;1.10;0.28;;;8.60;88.90;;;;;;4998466;28;20022;-70
2022/02/21 04:46:29;;;;;;;0.00;0.00;;;8.60;89.10;;;;;;4994278;28;20484;-69
2022/02/21 04:48:55;;;;;;;0.15;0.13;;;8.50;88.90;;;;;;4995946;28;20075;-70
2022/02/21 04:51:20;;;;;;;0.63;0.10;;;8.40;89.70;;;;;;5001666;28;20042;-69
2022/02/21 04:53:46;;;;;;;1.13;0.20;;;8.40;87.80;;;;;;4995341;28;20042;-69
2022/02/21 04:56:12;;;;;;;0.98;0.20;;;8.30;88.50;;;;;;4996336;28;20117;-69
2022/02/21 04:58:38;;;;;;;2.47;0.40;;;8.10;88.20;;;;;;4991188;28;20038;-69
2022/02/21 05:04:52;;;;;;;2.22;0.20;;;7.90;89.10;;;;;;4995557;28;20040;-69
2022/02/21 05:07:18;;;;;;;0.43;0.10;;;8.00;87.60;;;;;;4997098;28;20030;-69
2022/02/21 05:09:44;;;;;;;1.58;0.30;;;8.00;87.20;;;;;;4990228;28;20065;-69
2022/02/21 05:12:10;;;;;;;2.13;0.43;;;8.10;87.40;;;;;;5000036;28;20731;-69
2022/02/21 05:14:36;;;;;;;1.77;0.30;;;8.10;86.60;;;;;;4994143;28;20034;-68
2022/02/21 05:17:02;;;;;;;1.40;0.25;;;8.10;86.50;;;;;;4989438;28;20145;-69
2022/02/21 05:19:28;;;;;;;2.25;0.38;;;8.10;86.20;;;;;;4995532;28;20097;-69
2022/02/21 05:21:55;;;;;;;5.90;0.63;;;8.00;83.90;;;;;;4994288;28;20058;-69
2022/02/21 05:24:20;;;;;;;3.30;0.65;;;7.80;84.30;;;;;;4989960;28;20026;-69
2022/02/21 05:26:46;;;;;;;3.95;0.52;;;7.60;84.80;;;;;;4992357;28;20144;-69
2022/02/21 05:29:12;;;;;;;2.40;0.75;;;7.40;85.10;;;;;;4993938;28;20149;-69
2022/02/21 05:31:37;;;;;;;1.50;0.57;;;7.30;84.20;;;;;;4991831;28;20042;-70
2022/02/21 05:34:03;;;;;;;4.65;0.47;;;7.10;85.00;;;;;;4991317;28;20070;-69
2022/02/21 05:36:29;;;;;;;1.58;0.70;;;7.10;84.50;;;;;;4998054;28;20034;-69
2022/02/21 05:38:55;;;;;;;3.05;0.55;;;7.10;85.30;;;;;;4992355;28;20119;-69
2022/02/21 05:41:20;;;;;;;1.05;0.40;;;7.10;85.20;;;;;;4994419;28;20022;-69
2022/02/21 05:43:46;;;;;;;2.75;0.43;;;7.10;85.20;;;;;;5000706;28;20405;-69
2022/02/21 05:46:12;;;;;;;4.85;0.43;;;7.10;84.80;;;;;;4994708;28;20425;-69
2022/02/21 05:48:38;;;;;;;2.97;0.73;;;7.00;84.30;;;;;;4999622;28;20034;-69
2022/02/21 05:51:03;;;;;;;2.75;0.57;;;7.00;83.40;;;;;;4993685;28;20077;-69
2022/02/21 05:53:29;;;;;;;4.95;0.63;;;7.00;84.20;;;;;;5002244;28;20034;-69
2022/02/21 05:55:55;;;;;;;3.78;0.88;;;7.00;83.50;;;;;;4992591;28;20073;-71
2022/02/21 05:58:21;;;;;;;4.82;0.90;;;7.00;82.50;;;;;;4993356;28;20044;-70
2022/02/21 06:00:48;;;;;;;2.67;0.50;;;7.10;82.40;;;;;;4994749;28;20025;-70
2022/02/21 06:03:15;;;;;;;6.13;0.80;;;7.20;82.60;;;;;;5000449;28;20108;-69
2022/02/21 06:05:42;;;;;;;2.15;0.55;;;7.20;82.60;;;;;;4990782;28;20033;-70
2022/02/21 06:08:08;;;;;;;6.97;0.70;;;7.30;81.30;;;;;;4994579;28;20037;-69
2022/02/21 06:10:33;;;;;;;6.78;1.00;;;7.30;80.20;;;;;;4995325;28;20030;-70
2022/02/21 06:12:59;;;;;;;4.40;1.10;;;7.30;79.90;;;;;;4998233;28;20049;-70
2022/02/21 06:15:25;;;;;;;5.75;0.82;;;7.30;80.60;;;;;;4994057;28;20057;-70
2022/02/21 06:17:50;;;;;;;6.32;1.27;;;7.30;80.80;;;;;;4994347;28;20671;-70
2022/02/21 06:20:16;;;;;;;5.45;1.00;;;7.20;81.00;;;;;;4994395;28;20026;-70
2022/02/21 06:22:42;;;;;;;5.97;1.23;;;7.30;79.90;;;;;;4998638;28;20053;-69
2022/02/21 06:25:08;;;;;;;8.50;1.55;;;7.30;82.40;;;;;;4996878;28;20026;-70
2022/02/21 06:27:35;;;;;;;3.25;0.60;;;7.10;85.70;;;;;;4992982;28;20119;-70
2022/02/21 06:30:00;;;;;;;7.05;1.17;;;7.00;87.60;;;;;;4994288;28;20030;-70
2022/02/21 06:32:26;;;;;;;1.30;0.57;;;6.80;89.30;;;;;;4992826;28;20477;-70
2022/02/21 06:34:52;;;;;;;1.88;0.63;;;6.60;90.30;;;;;;4995060;28;20038;-70
2022/02/21 06:37:18;;;;;;;4.10;0.82;;;6.40;90.70;;;;;;4997668;28;20850;-69
2022/02/21 06:39:45;;;;;;;4.38;0.82;;;6.20;91.20;;;;;;4999532;28;20125;-69
2022/02/21 06:42:10;;;;;;;3.38;0.90;;;6.30;91.20;;;;;;4991396;28;20505;-69
2022/02/21 06:44:36;;;;;;;7.93;1.02;;;6.30;91.30;;;;;;4998077;28;20038;-69
2022/02/21 06:47:03;;;;;;;4.55;1.05;;;6.30;91.00;;;;;;4994510;28;20072;-69
2022/02/21 06:49:29;;;;;;;6.15;1.15;;;6.40;90.10;;;;;;4992785;28;20111;-69
2022/02/21 06:51:55;;;;;;;6.15;1.33;;;6.40;90.00;;;;;;4997653;28;20038;-69
2022/02/21 06:54:22;;;;;;;9.32;1.30;;;6.50;89.80;;;;;;4994355;28;20044;-69
2022/02/21 06:56:47;;;;;;;9.18;1.50;;;6.60;89.60;;;;;;4997841;28;20771;-69
2022/02/21 06:59:13;;;;;;;6.72;1.25;;;6.70;87.90;;;;;;4989780;28;20044;-69
2022/02/21 07:01:39;;;;;;;10.20;1.35;;;6.70;85.90;;;;;;4999436;28;20030;-69
2022/02/21 07:04:05;;;;;;;13.50;1.80;;;6.70;84.50;;;;;;4995901;28;20029;-70
2022/02/21 07:06:35;;;;;;;11.45;1.08;;;6.70;84.20;;;;;;4995669;28;20798;-71
2022/02/21 07:09:02;;;;;;;9.43;1.15;;;6.80;83.50;;;;;;5000205;28;20061;-69
2022/02/21 07:11:28;;;;;;;6.93;1.30;;;6.90;82.60;;;;;;4992887;28;20044;-70
2022/02/21 07:13:53;;;;;;;13.48;1.38;;;7.00;80.60;;;;;;4994188;28;20692;-69
2022/02/21 07:16:19;;;;;;;9.00;1.88;;;7.00;79.70;;;;;;4998569;28;20049;-67
2022/02/21 07:18:45;;;;;;;3.42;0.90;;;7.10;78.90;;;;;;4994963;28;20116;-69
2022/02/21 07:21:10;;;;;;;3.78;0.80;;;7.20;78.00;;;;;;4997577;28;20029;-69
2022/02/21 07:23:36;;;;;;;15.82;2.35;;;7.10;79.00;;;;;;4997336;28;20048;-69
2022/02/21 07:26:03;;;;;;;7.28;1.45;;;7.10;78.10;;;;;;4998448;28;20137;-69
2022/02/21 07:28:29;;;;;;;4.65;1.20;;;7.20;78.00;;;;;;4992633;28;20139;-69
2022/02/21 07:30:54;;;;;;;9.23;1.70;;;7.40;77.40;;;;;;4997395;28;20062;-69
2022/02/21 07:33:20;;;;;;;8.95;1.63;;;7.60;76.40;;;;;;4994321;28;20035;-69
2022/02/21 07:35:46;;;;;;;11.23;1.55;;;7.80;76.10;;;;;;4997637;28;20045;-69
2022/02/21 07:38:12;;;;;;;6.40;1.67;;;7.90;74.80;;;;;;4997512;28;20089;-70
2022/02/21 07:40:38;;;;;;;9.57;1.00;;;7.90;74.30;;;;;;4994271;28;20217;-69
2022/02/21 07:43:04;;;;;;;8.15;1.38;;;7.80;74.80;;;;;;4993514;28;20038;-69
2022/02/21 07:45:29;;;;;;;3.70;1.15;;;7.80;76.00;;;;;;4995924;28;20030;-69
2022/02/21 07:47:58;;;;;;;8.50;1.20;;;7.70;76.20;;;;;;4994523;28;20030;-69
2022/02/21 07:50:25;;;;;;;5.90;1.08;;;7.70;76.50;;;;;;4992089;28;20034;-70
2022/02/21 07:52:52;;;;;;;6.20;0.98;;;7.70;77.10;;;;;;4992780;28;20038;-69
2022/02/21 07:55:18;;;;;;;15.60;1.50;;;7.70;77.00;;;;;;4991374;28;20042;-67
2022/02/21 07:57:44;;;;;;;8.43;1.42;;;7.80;76.90;;;;;;4990596;28;20040;-70
2022/02/21 08:00:12;;;;;;;7.13;2.08;;;7.80;77.20;;;;;;4995266;28;20034;-70
2022/02/21 08:02:40;;;;;;;6.78;1.02;;;7.70;78.20;;;;;;4992615;28;20038;-70
2022/02/21 08:05:07;;;;;;;6.70;1.30;;;7.70;79.00;;;;;;4996895;28;20033;-70
2022/02/21 08:07:33;;;;;;;5.95;1.77;;;7.70;78.90;;;;;;4988119;28;20041;-70
2022/02/21 08:09:59;;;;;;;3.80;0.65;;;8.00;78.40;;;;;;4994391;28;20648;-69
2022/02/21 08:12:25;;;;;;;3.40;1.08;;;8.70;74.70;;;;;;4993216;28;20116;-66
2022/02/21 08:14:51;;;;;;;3.35;2.05;;;9.40;72.30;;;;;;4990738;28;20100;-66
2022/02/21 08:17:17;;;;;;;5.93;1.33;;;9.40;70.50;;;;;;4994804;28;20121;-65
2022/02/21 08:19:42;;;;;;;8.13;2.78;;;9.20;70.60;;;;;;4992211;28;20133;-66
2022/02/21 08:22:09;;;;;;;6.05;1.58;;;8.90;71.50;;;;;;4993962;28;20022;-65
2022/02/21 08:24:34;;;;;;;4.85;1.25;;;8.50;72.20;;;;;;4991240;28;20030;-66
2022/02/21 08:27:01;;;;;;;6.28;1.05;;;8.30;73.10;;;;;;4994774;28;20041;-69
2022/02/21 08:29:26;;;;;;;7.90;1.10;;;8.10;73.40;;;;;;4994222;28;20069;-67
2022/02/21 08:31:54;;;;;;;7.80;2.65;;;8.00;73.20;;;;;;4990806;28;20878;-67
2022/02/21 08:34:22;;;;;;;9.75;2.40;;;8.00;73.80;;;;;;4984078;28;20115;-67
2022/02/21 08:36:48;;;;;;;6.43;2.45;;;8.00;74.30;;;;;;4981917;28;20037;-63
2022/02/21 08:39:14;;;;;;;10.40;2.25;;;8.10;72.70;;;;;;4992839;28;20033;-64
2022/02/21 08:41:39;;;;;;;7.65;2.47;;;8.40;72.90;;;;;;4987757;28;20457;-65
2022/02/21 08:44:05;;;;;;;9.13;1.30;;;8.60;71.40;;;;;;4992986;28;20660;-64
2022/02/21 08:46:31;;;;;;;4.97;1.48;;;9.10;68.50;;;;;;4988504;28;20146;-64
2022/02/21 08:48:58;;;;;;;10.68;3.42;;;9.30;67.60;;;;;;4991012;28;20057;-66
2022/02/21 08:51:25;;;;;;;6.95;2.10;;;9.30;67.60;;;;;;4991032;28;20812;-66
2022/02/21 08:53:51;;;;;;;8.40;2.38;;;9.50;67.40;;;;;;4996545;28;20036;-66
2022/02/21 08:56:17;;;;;;;6.60;1.63;;;9.60;65.10;;;;;;4991993;28;20034;-66
2022/02/21 08:58:42;;;;;;;8.68;1.85;;;9.60;64.60;;;;;;4986899;28;20023;-62
2022/02/21 09:01:08;;;;;;;7.68;2.30;;;9.80;66.50;;;;;;4989672;28;20031;-66
2022/02/21 09:03:34;;;;;;;7.57;2.78;;;10.00;65.20;;;;;;4991785;28;20034;-66
2022/02/21 09:06:00;;;;;;;5.22;1.45;;;10.30;65.40;;;;;;4993130;28;20030;-66
2022/02/21 09:08:27;;;;;;;5.05;1.55;;;10.50;63.60;;;;;;4993781;28;20720;-66
2022/02/21 09:10:53;;;;;;;6.15;1.00;;;10.40;63.50;;;;;;4990434;28;20065;-66
2022/02/21 09:13:19;;;;;;;3.88;1.50;;;10.40;64.40;;;;;;4993098;28;20497;-66
2022/02/21 09:15:44;;;;;;;6.25;0.98;;;10.20;63.80;;;;;;4998762;28;20080;-68
2022/02/21 09:18:10;;;;;;;8.35;0.88;;;9.70;63.60;;;;;;5002468;28;20125;-65
2022/02/21 09:20:36;;;;;;;2.78;0.80;;;10.20;64.50;;;;;;4995550;28;20038;-68
2022/02/21 09:23:03;;;;;;;5.13;1.20;;;11.10;60.90;;;;;;4997617;28;20055;-67
2022/02/21 09:25:29;;;;;;;2.03;0.90;;;11.90;58.70;;;;;;4999398;28;20053;-68
2022/02/21 09:27:55;;;;;;;3.47;0.85;;;14.80;53.40;;;;;;4994883;28;20037;-65
2022/02/21 09:30:22;;;;;;;6.28;1.45;;;16.50;47.00;;;;;;4991807;28;20483;-67
2022/02/21 09:32:49;;;;;;;3.83;1.05;;;16.20;46.60;;;;;;4992751;28;20387;-67
2022/02/21 09:35:15;;;;;;;6.03;1.13;;;14.80;48.70;;;;;;4995867;28;20054;-67
2022/02/21 09:37:41;;;;;;;7.38;1.20;;;13.80;51.30;;;;;;4994095;28;20133;-69
2022/02/21 09:40:10;;;;;;;3.95;0.80;;;13.50;53.60;;;;;;4993073;28;20454;-67
2022/02/21 09:42:42;;;;;;;5.00;0.93;;;16.20;46.20;;;;;;4998897;28;20042;-68
2022/02/21 09:45:09;;;;;;;7.15;1.35;;;19.70;38.50;;;;;;4991321;28;20315;-66
2022/02/21 09:47:34;;;;;;;3.65;0.82;;;20.90;34.80;;;;;;4997395;28;20104;-66
2022/02/21 09:50:00;;;;;;;5.15;1.60;;;22.00;34.40;;;;;;4993170;28;20144;-66
2022/02/21 09:52:27;;;;;;;6.07;1.60;;;23.30;32.00;;;;;;4995326;28;20580;-65
2022/02/21 09:54:54;;;;;;;4.50;1.20;;;23.90;30.60;;;;;;4995635;28;20042;-66
2022/02/21 09:57:20;;;;;;;6.53;1.25;;;22.20;32.70;;;;;;4993766;28;20585;-66
2022/02/21 09:59:46;;;;;;;6.43;1.17;;;19.40;36.10;;;;;;4990278;28;20084;-66
2022/02/21 10:02:18;;;;;;;3.67;1.20;;;17.50;40.50;;;;;;4997716;28;20117;-65
2022/02/21 10:04:44;;;;;;;5.95;1.10;;;17.00;41.50;;;;;;4994540;28;20033;-66
2022/02/21 10:07:10;;;;;;;4.50;1.30;;;15.90;43.20;;;;;;5003131;28;20044;-66
2022/02/21 10:09:42;;;;;;;3.92;1.27;;;15.30;44.60;;;;;;4995583;28;20113;-66
2022/02/21 10:12:21;;;;;;;5.18;1.08;;;15.50;45.30;;;;;;4995543;28;20037;-67
2022/02/21 10:14:47;;;;;;;6.20;1.20;;;15.60;43.60;;;;;;4987589;28;20049;-66
2022/02/21 10:17:15;;;;;;;10.20;2.15;;;14.70;45.20;;;;;;4998898;28;20788;-66
2022/02/21 10:19:42;;;;;;;6.07;2.33;;;13.60;48.20;;;;;;4990191;28;20077;-66
2022/02/21 10:22:10;;;;;;;9.35;3.92;;;12.60;50.40;;;;;;4999396;28;20109;-66
2022/02/21 10:24:40;;;;;;;8.18;3.70;;;11.90;53.00;;;;;;4992763;28;20085;-66
2022/02/21 10:27:14;;;;;;;12.27;2.65;;;11.30;54.00;;;;;;5002321;28;20037;-66
2022/02/21 10:29:49;;;;;;;7.90;2.70;;;10.80;55.30;;;;;;4994718;28;20037;-66
2022/02/21 10:32:17;;;;;;;6.75;2.22;;;10.80;56.20;;;;;;4998207;28;20026;-66
2022/02/21 10:34:45;;;;;;;11.63;2.38;;;10.60;55.80;;;;;;4990629;28;20045;-66
2022/02/21 10:37:13;;;;;;;12.30;2.45;;;10.40;57.40;;;;;;4998507;28;20033;-65
2022/02/21 10:39:39;;;;;;;5.38;2.20;;;10.00;57.60;;;;;;4996637;28;20030;-66
2022/02/21 10:42:09;;;;;;;6.07;1.50;;;10.40;56.90;;;;;;4996942;28;20057;-66
2022/02/21 10:44:37;;;;;;;5.15;1.42;;;10.50;56.80;;;;;;4997754;28;20057;-65
2022/02/21 10:47:19;;;;;;;7.35;1.58;;;10.30;56.80;;;;;;4993886;28;20341;-65
2022/02/21 10:49:55;;;;;;;5.50;1.30;;;10.30;58.00;;;;;;4991224;28;20042;-65
2022/02/21 10:52:27;;;;;;;9.20;1.60;;;10.40;58.80;;;;;;4995872;28;20109;-64
2022/02/21 10:54:54;;;;;;;10.82;1.75;;;10.30;57.90;;;;;;4997376;28;20128;-65
2022/02/21 10:57:24;;;;;;;7.82;1.30;;;10.10;58.20;;;;;;4989686;28;20038;-65
2022/02/21 10:59:51;;;;;;;6.82;1.55;;;10.10;58.10;;;;;;4996153;28;20375;-65
2022/02/21 11:02:19;;;;;;;9.32;1.35;;;10.00;58.10;;;;;;4996485;28;20208;-66
2022/02/21 11:04:44;;;;;;;3.10;0.73;;;10.20;58.10;;;;;;4994816;28;20044;-68
2022/02/21 11:07:11;;;;;;;5.60;1.20;;;10.40;56.60;;;;;;4993196;28;20414;-69
2022/02/21 11:09:38;;;;;;;6.57;1.38;;;10.50;56.00;;;;;;5001062;28;20053;-71
2022/02/21 11:12:05;;;;;;;7.63;1.30;;;10.40;56.80;;;;;;4996919;28;20038;-67
2022/02/21 11:14:32;;;;;;;4.63;1.02;;;10.30;56.40;;;;;;4993505;28;20585;-67
2022/02/21 11:17:00;;;;;;;9.40;1.58;;;10.10;56.80;;;;;;4993705;28;20033;-67
2022/02/21 11:19:26;;;;;;;9.30;1.60;;;9.90;57.20;;;;;;4998459;28;20149;-67
2022/02/21 11:21:53;;;;;;;7.97;1.10;;;9.90;57.30;;;;;;4992056;28;20112;-68
2022/02/21 11:24:33;;;;;;;6.47;1.30;;;9.90;57.80;;;;;;4993051;28;20037;-68
2022/02/21 11:27:16;;;;;;;6.88;1.20;;;10.00;57.50;;;;;;4990464;28;20084;-68
2022/02/21 11:29:45;;;;;;;7.90;1.42;;;10.30;56.30;;;;;;4986817;28;20153;-68
2022/02/21 11:32:21;;;;;;;6.93;1.92;;;10.50;54.70;;;;;;5001090;28;20481;-68
2022/02/21 11:34:48;;;;;;;7.18;1.75;;;10.40;55.30;;;;;;4995704;28;20053;-68
2022/02/21 11:37:24;;;;;;;8.80;2.30;;;10.20;56.00;;;;;;4996939;28;20088;-67
2022/02/21 11:39:58;;;;;;;4.40;0.95;;;10.10;56.40;;;;;;4994232;28;20054;-68
2022/02/21 11:42:33;;;;;;;8.48;1.15;;;10.20;55.90;;;;;;4996413;28;20045;-68
2022/02/21 11:45:00;;;;;;;5.95;1.35;;;10.20;55.60;;;;;;4992322;28;20037;-68
2022/02/21 11:47:41;;;;;;;6.75;1.17;;;10.20;55.20;;;;;;4995872;28;20056;-68
2022/02/21 11:50:19;;;;;;;3.53;0.93;;;9.90;55.50;;;;;;4996383;28;20615;-66
2022/02/21 11:52:49;;;;;;;4.82;1.13;;;9.80;56.90;;;;;;4999180;28;20079;-67
2022/02/21 11:55:30;;;;;;;7.15;1.17;;;9.90;56.70;;;;;;4993785;28;20637;-62
2022/02/21 11:58:22;;;;;;;2.42;0.85;;;10.00;56.10;;;;;;4990026;28;20473;-67
2022/02/21 12:00:49;;;;;;;6.72;1.33;;;10.00;56.20;;;;;;4994255;28;20836;-64
2022/02/21 12:03:17;;;;;;;7.25;1.23;;;10.00;56.20;;;;;;4992561;28;20025;-66
2022/02/21 12:05:46;;;;;;;7.20;1.25;;;9.80;55.90;;;;;;4987589;28;20030;-66
2022/02/21 12:08:25;;;;;;;7.50;1.58;;;9.60;56.80;;;;;;4995512;28;20042;-64
2022/02/21 12:11:03;;;;;;;7.93;1.25;;;9.40;57.20;;;;;;4991407;28;20045;-66
2022/02/21 12:13:30;;;;;;;7.80;1.27;;;9.40;58.10;;;;;;4991405;28;20042;-65
2022/02/21 12:16:10;;;;;;;6.47;1.42;;;9.50;56.50;;;;;;4994278;28;20086;-65
2022/02/21 12:18:42;;;;;;;9.27;1.55;;;9.40;57.10;;;;;;4990795;28;20128;-63
2022/02/21 12:21:26;;;;;;;4.85;1.20;;;9.30;57.70;;;;;;4991470;28;20414;-66
2022/02/21 12:23:55;;;;;;;7.18;1.90;;;9.30;57.60;;;;;;4994279;28;20034;-65
2022/02/21 12:26:35;;;;;;;8.05;2.20;;;9.40;58.00;;;;;;4990956;28;20066;-68
2022/02/21 12:29:17;;;;;;;8.60;2.55;;;9.50;58.00;;;;;;4987462;28;20041;-67
2022/02/21 12:31:59;;;;;;;6.43;1.85;;;9.50;57.30;;;;;;4994499;28;20031;-79
2022/02/21 12:34:28;;;;;;;11.18;1.95;;;9.40;57.30;;;;;;4994929;28;20040;-73
2022/02/21 12:37:05;;;;;;;10.20;2.75;;;9.30;57.70;;;;;;4994970;28;20045;-73
2022/02/21 12:39:37;;;;;;;8.70;2.10;;;9.20;57.50;;;;;;4999485;28;20514;-73
2022/02/21 12:42:04;;;;;;;8.07;2.08;;;9.00;57.20;;;;;;4995293;28;20073;-74
2022/02/21 12:44:30;;;;;;;9.93;1.83;;;8.90;58.10;;;;;;5005654;28;20061;-70
2022/02/21 12:46:57;;;;;;;6.85;1.80;;;8.90;59.00;;;;;;5002233;28;20772;-71
2022/02/21 12:49:26;;;;;;;8.57;1.90;;;8.80;58.40;;;;;;5005426;28;20120;-72
2022/02/21 12:51:57;;;;;;;8.43;2.22;;;8.70;60.00;;;;;;4994117;28;20168;-72
2022/02/21 12:54:23;;;;;;;5.55;1.48;;;8.60;59.30;;;;;;4996072;28;20592;-72
2022/02/21 12:56:51;;;;;;;10.13;1.77;;;8.60;59.40;;;;;;4993719;28;20035;-74